Time;durP1;ratioP1;P1;durP2;ratioP2;P2;SDS_P1;SDS_P2;PMS_P1;PMS_P2;Temp;Humidity;BMP_temperature;BMP_pressure;BME280_temperature;BME280_humidity;BME280_pressure;Samples;Min_cycle;Max_cycle;Signal;HPM_P1;HPM_P2
2022/05/27 00:04:29;;;;;;;1.90;1.10;;;;;;;12.96;70.68;98863.98;220002;1274;22537;-67
2022/05/27 00:09:55;;;;;;;1.70;0.90;;;;;;;12.98;70.84;98863.71;216141;1274;5389228;-67
2022/05/27 00:15:18;;;;;;;;;;;;;;;;;;;;;
2022/05/27 00:20:45;;;;;;;1.60;0.90;;;;;;;13.11;70.83;98857.80;219927;1274;24147;-67
2022/05/27 00:26:20;;;;;;;1.70;1.20;;;;;;;13.20;70.64;98856.37;219716;1274;24211;-68
2022/05/27 00:31:57;;;;;;;1.30;0.90;;;;;;;13.26;70.47;98843.85;219701;1273;23128;-68
2022/05/27 00:37:23;;;;;;;0.90;0.90;;;;;;;13.30;70.38;98841.02;219603;1275;25484;-67
2022/05/27 00:42:28;;;;;;;1.20;0.90;;;;;;;13.33;70.33;98838.46;220018;1274;24095;-67
2022/05/27 00:47:53;;;;;;;;;;;;;;;;;;;;;
2022/05/27 00:54:00;;;;;;;2.10;0.70;;;;;;;13.39;70.26;98835.25;220099;1274;22563;-67
2022/05/27 00:59:23;;;;;;;1.10;1.00;;;;;;;13.42;70.23;98830.86;219800;1274;24261;-68
2022/05/27 01:11:47;;;;;;;;;;;;;;;;;;;;;
2022/05/27 01:17:36;;;;;;;1.20;0.80;;;;;;;13.48;70.14;98813.34;218569;1281;22593;-68
2022/05/27 01:23:07;;;;;;;1.60;0.90;;;;;;;13.47;70.04;98813.38;219969;1274;22535;-68
2022/05/27 01:28:51;;;;;;;2.20;1.00;;;;;;;13.46;70.04;98805.77;219478;1274;24158;-67
2022/05/27 01:41:32;;;;;;;2.20;1.20;;;;;;;13.36;70.18;98799.33;218995;1276;22564;-66
2022/05/27 01:47:08;;;;;;;2.70;1.00;;;;;;;13.31;70.18;98790.46;219367;1274;22544;-68
2022/05/27 01:53:13;;;;;;;2.30;1.10;;;;;;;13.27;70.12;98785.73;219700;1274;22575;-68
2022/05/27 01:58:52;;;;;;;1.40;0.90;;;;;;;13.19;70.14;98787.63;219835;1274;22753;-67
2022/05/27 02:10:35;;;;;;;;;;;;;;;;;;;;;
2022/05/27 02:16:26;;;;;;;;;;;;;;;;;;;;;
2022/05/27 02:22:30;;;;;;;1.90;1.10;;;;;;;12.58;70.71;98767.68;219380;1273;22769;-68
2022/05/27 02:28:21;;;;;;;1.50;1.40;;;;;;;12.47;71.13;98764.26;219713;1273;25232;-68
2022/05/27 02:39:53;;;;;;;1.40;1.20;;;;;;;12.47;71.67;98751.80;219600;1273;27371;-67
2022/05/27 02:45:39;;;;;;;3.20;1.30;;;;;;;12.51;71.73;98748.05;219591;1274;23134;-67
2022/05/27 02:51:24;;;;;;;2.50;1.20;;;;;;;12.58;71.70;98748.56;219372;1274;25359;-66
2022/05/27 02:57:13;;;;;;;1.00;0.90;;;;;;;12.64;71.64;98735.59;219372;1274;24260;-66
2022/05/27 03:02:18;;;;;;;1.90;1.00;;;;;;;12.72;71.58;98733.46;219632;1274;24221;-68
2022/05/27 03:07:59;;;;;;;2.60;1.20;;;;;;;12.78;71.51;98731.02;219349;1274;24386;-68
2022/05/27 03:13:39;;;;;;;1.40;1.30;;;;;;;12.86;71.49;98728.44;219387;1274;22562;-67
2022/05/27 03:25:37;;;;;;;2.50;1.30;;;;;;;12.99;71.41;98728.89;219367;1274;24234;-68
2022/05/27 03:31:41;;;;;;;2.80;1.50;;;;;;;13.06;71.32;98724.92;219837;1274;22599;-67
2022/05/27 03:37:30;;;;;;;1.90;1.10;;;;;;;13.12;71.13;98724.10;219950;1274;25460;-68
2022/05/27 03:48:38;;;;;;;1.90;1.20;;;;;;;13.22;70.92;98721.61;219427;1273;25332;-67
2022/05/27 03:54:32;;;;;;;1.70;1.20;;;;;;;13.24;70.78;98714.84;219290;1273;22540;-69
2022/05/27 04:00:45;;;;;;;2.20;1.30;;;;;;;13.29;70.82;98708.67;219318;1273;24287;-67
2022/05/27 04:06:20;;;;;;;;;;;;;;;;;;;;;
2022/05/27 04:11:54;;;;;;;2.20;1.20;;;;;;;13.38;70.63;98709.14;219475;1273;22563;-68
2022/05/27 04:17:33;;;;;;;3.70;1.40;;;;;;;13.43;70.57;98704.54;219421;1273;24470;-68
2022/05/27 04:23:12;;;;;;;3.50;1.30;;;;;;;13.51;70.55;98697.06;219634;1273;22541;-69
2022/05/27 04:28:51;;;;;;;2.40;1.30;;;;;;;13.57;70.49;98688.30;219378;1274;25314;-67
2022/05/27 04:33:54;;;;;;;2.40;1.50;;;;;;;13.65;70.32;98683.30;219319;1276;22541;-67
2022/05/27 04:39:00;;;;;;;1.20;1.10;;;;;;;13.73;70.27;98685.13;219422;1277;24122;-67
2022/05/27 04:44:09;;;;;;;1.70;1.30;;;;;;;13.80;70.24;98681.42;219356;1273;22927;-68
2022/05/27 04:49:50;;;;;;;1.60;1.50;;;;;;;13.88;70.00;98674.80;219392;1274;26377;-67
2022/05/27 04:54:35;;;;;;;2.20;1.30;;;;;;;13.95;69.80;98673.58;219875;1274;23114;-68
2022/05/27 04:59:52;;;;;;;;;;;;;;;;;;;;;
2022/05/27 05:05:19;;;;;;;1.80;1.30;;;;;;;14.06;69.79;98665.52;219276;1274;22561;-67
2022/05/27 05:10:24;;;;;;;3.10;1.40;;;;;;;14.15;69.53;98661.32;219735;1274;22546;-68
2022/05/27 05:15:27;;;;;;;2.50;1.30;;;;;;;14.26;69.39;98660.14;219552;1273;22619;-68
2022/05/27 05:20:33;;;;;;;1.20;1.00;;;;;;;14.38;69.26;98657.45;219483;1274;22780;-67
2022/05/27 05:25:48;;;;;;;3.60;1.10;;;;;;;14.56;69.13;98655.54;219408;1276;25447;-68
2022/05/27 05:30:55;;;;;;;2.30;1.30;;;;;;;14.82;68.88;98657.75;219577;1273;25534;-69
2022/05/27 05:35:59;;;;;;;1.60;1.40;;;;;;;15.06;68.65;98664.20;219566;1273;25332;-66
2022/05/27 05:41:02;;;;;;;2.10;1.00;;;;;;;15.26;68.05;98656.23;219412;1273;25347;-67
2022/05/27 05:46:04;;;;;;;1.70;1.30;;;;;;;15.45;67.25;98649.00;219295;1273;25310;-67
2022/05/27 05:51:10;;;;;;;1.90;1.30;;;;;;;15.66;67.14;98648.50;219168;1274;23821;-68
2022/05/27 05:56:12;;;;;;;2.50;2.10;;;;;;;15.91;66.39;98641.73;219040;1274;22579;-66
2022/05/27 06:01:29;;;;;;;1.50;1.20;;;;;;;16.06;65.59;98641.44;218549;1273;22792;-68
2022/05/27 06:06:37;;;;;;;1.80;1.10;;;;;;;16.22;65.58;98639.25;219566;1274;24741;-67
2022/05/27 06:11:39;;;;;;;2.70;1.00;;;;;;;16.33;65.10;98637.89;219123;1273;26341;-67
2022/05/27 06:16:41;;;;;;;1.40;1.10;;;;;;;16.43;64.96;98629.89;219646;1274;22570;-67
2022/05/27 06:21:44;;;;;;;1.70;1.20;;;;;;;16.62;64.57;98628.33;219254;1274;24239;-67
2022/05/27 06:26:47;;;;;;;2.00;0.80;;;;;;;16.83;64.47;98623.92;218791;1276;22553;-67
2022/05/27 06:37:44;;;;;;;3.80;1.00;;;;;;;17.21;62.54;98622.58;219369;1273;22554;-68
2022/05/27 06:42:50;;;;;;;1.00;0.80;;;;;;;17.39;62.04;98619.92;218877;1273;22556;-68
2022/05/27 06:47:52;;;;;;;2.70;1.30;;;;;;;17.57;61.54;98614.31;219313;1274;22557;-67
2022/05/27 06:52:54;;;;;;;3.00;1.10;;;;;;;17.79;61.51;98597.17;218966;1274;22698;-67
2022/05/27 06:57:57;;;;;;;2.10;1.30;;;;;;;17.99;61.16;98589.05;218926;1274;22570;-67
2022/05/27 07:03:01;;;;;;;1.80;1.00;;;;;;;18.28;60.99;98575.77;219097;1273;22566;-67
2022/05/27 07:08:07;;;;;;;1.40;1.00;;;;;;;18.54;60.31;98578.75;219329;1273;24269;-66
2022/05/27 07:13:13;;;;;;;2.30;0.80;;;;;;;18.62;59.42;98570.81;219438;1273;22592;-68
2022/05/27 07:18:29;;;;;;;2.10;1.10;;;;;;;18.67;58.74;98570.01;219751;1274;24199;-68
2022/05/27 07:23:34;;;;;;;1.30;1.20;;;;;;;18.77;58.77;98566.17;218940;1275;22566;-67
2022/05/27 07:28:37;;;;;;;2.00;1.20;;;;;;;18.80;58.08;98561.59;219362;1273;25494;-69
2022/05/27 07:33:40;;;;;;;1.70;1.20;;;;;;;18.76;58.05;98559.94;219189;1273;24277;-69
2022/05/27 07:38:42;;;;;;;1.70;1.20;;;;;;;18.85;58.71;98553.20;219504;1274;24224;-69
2022/05/27 07:43:46;;;;;;;2.60;1.20;;;;;;;18.95;58.46;98548.52;219118;1274;22561;-69
2022/05/27 07:48:51;;;;;;;2.80;1.30;;;;;;;19.04;58.34;98542.38;219655;1274;24189;-68
2022/05/27 07:54:14;;;;;;;1.60;1.20;;;;;;;19.21;58.61;98532.54;219379;1273;22556;-68
2022/05/27 07:59:37;;;;;;;2.70;1.20;;;;;;;19.29;57.87;98523.66;219277;1274;24276;-69
2022/05/27 08:04:54;;;;;;;;;;;;;;;;;;;;;
2022/05/27 08:10:08;;;;;;;2.30;1.20;;;;;;;18.95;57.46;98508.20;219795;1276;22546;-69
2022/05/27 08:15:40;;;;;;;5.60;1.30;;;;;;;19.19;57.89;98507.66;219719;1274;22998;-67
2022/05/27 08:20:43;;;;;;;3.60;1.20;;;;;;;19.65;58.17;98512.80;219518;1274;25259;-69
2022/05/27 08:25:45;;;;;;;1.20;1.10;;;;;;;20.17;55.95;98505.41;219162;1274;23883;-69
2022/05/27 08:31:01;;;;;;;2.50;0.90;;;;;;;20.62;55.03;98496.77;218704;1274;25264;-69
2022/05/27 08:42:04;;;;;;;1.70;1.00;;;;;;;21.11;52.75;98492.92;219351;1274;22580;-69
2022/05/27 08:47:25;;;;;;;1.40;0.90;;;;;;;21.30;52.33;98485.03;219641;1276;22571;-68
2022/05/27 08:52:59;;;;;;;1.80;1.40;;;;;;;21.22;51.34;98479.38;219126;1274;22545;-67
2022/05/27 09:03:45;;;;;;;3.40;1.10;;;;;;;21.61;52.40;98458.61;219382;1274;24275;-68
2022/05/27 09:08:56;;;;;;;1.30;1.20;;;;;;;21.87;51.10;98458.55;219847;1274;23448;-69
2022/05/27 09:14:21;;;;;;;3.70;1.30;;;;;;;21.91;50.35;98454.85;219514;1274;25344;-70
2022/05/27 09:19:49;;;;;;;1.50;1.30;;;;;;;21.94;51.50;98458.95;219665;1274;22545;-68
2022/05/27 09:25:04;;;;;;;3.60;1.30;;;;;;;22.39;50.90;98438.52;219773;1274;22693;-68
2022/05/27 09:30:10;;;;;;;3.10;1.60;;;;;;;22.60;49.74;98443.72;219656;1274;22770;-68
2022/05/27 09:35:25;;;;;;;1.90;1.70;;;;;;;22.53;48.75;98437.44;219589;1274;22574;-67
2022/05/27 09:41:23;;;;;;;3.10;2.70;;;;;;;22.06;48.03;98433.75;219300;1274;25480;-68
2022/05/27 09:46:31;;;;;;;2.10;1.20;;;;;;;21.54;48.58;98435.86;219667;1276;22549;-68
2022/05/27 09:51:34;;;;;;;2.90;1.20;;;;;;;21.11;49.46;98432.09;219521;1274;24685;-68
2022/05/27 09:56:56;;;;;;;3.00;1.60;;;;;;;20.95;49.93;98428.58;219320;1274;22600;-68
2022/05/27 10:02:28;;;;;;;3.10;1.90;;;;;;;20.78;50.52;98418.84;219606;1274;22620;-69
2022/05/27 10:07:36;;;;;;;3.10;1.40;;;;;;;20.54;51.13;98421.69;219892;1274;22482;-68
2022/05/27 10:12:42;;;;;;;2.80;1.20;;;;;;;20.39;51.65;98408.30;219255;1274;22586;-68
2022/05/27 10:17:46;;;;;;;2.50;1.70;;;;;;;20.34;52.50;98398.11;219350;1277;22823;-68
2022/05/27 10:23:23;;;;;;;3.00;1.20;;;;;;;20.24;52.51;98397.23;219764;1274;24778;-69
2022/05/27 10:28:32;;;;;;;2.20;1.60;;;;;;;20.00;52.42;98391.23;219272;1274;25407;-68
2022/05/27 10:33:39;;;;;;;6.40;2.20;;;;;;;19.75;53.11;98397.73;219737;1274;22478;-70
2022/05/27 10:38:56;;;;;;;4.20;2.20;;;;;;;19.58;53.61;98398.25;219906;1274;22707;-69
2022/05/27 10:44:07;;;;;;;2.50;1.70;;;;;;;19.46;54.63;98392.88;219016;1277;25313;-70
2022/05/27 10:49:32;;;;;;;3.60;1.40;;;;;;;19.37;55.79;98379.35;219446;1275;25412;-69
2022/05/27 10:55:02;;;;;;;2.10;1.60;;;;;;;19.25;56.94;98371.98;219391;1275;26052;-68
2022/05/27 11:06:19;;;;;;;3.50;1.80;;;;;;;19.15;58.35;98370.90;219413;1275;22575;-69
2022/05/27 11:11:31;;;;;;;5.70;2.60;;;;;;;19.14;57.93;98361.65;219528;1274;22570;-70
2022/05/27 11:16:39;;;;;;;3.10;1.70;;;;;;;19.13;57.69;98362.40;219690;1274;22594;-69
2022/05/27 11:22:04;;;;;;;2.60;1.90;;;;;;;19.06;58.52;98367.52;219307;1275;22933;-68
2022/05/27 11:27:09;;;;;;;2.80;1.40;;;;;;;18.97;59.02;98361.28;219596;1274;22558;-69
2022/05/27 11:32:39;;;;;;;2.30;1.60;;;;;;;18.87;60.05;98371.52;219696;1274;26252;-68
2022/05/27 11:38:01;;;;;;;3.80;1.80;;;;;;;18.62;61.20;98361.39;219506;1274;22535;-67
2022/05/27 11:43:15;;;;;;;1.70;1.30;;;;;;;18.30;62.31;98371.56;219458;1274;23358;-66
2022/05/27 11:48:52;;;;;;;3.00;2.20;;;;;;;17.73;64.42;98394.96;219506;1275;25442;-66
2022/05/27 11:54:30;;;;;;;2.20;2.00;;;;;;;16.93;67.53;98408.36;219520;1274;22538;-67
2022/05/27 12:00:00;;;;;;;2.80;2.50;;;;;;;16.46;70.42;98422.79;219308;1274;24235;-67
2022/05/27 12:05:28;;;;;;;2.80;2.30;;;;;;;16.30;71.95;98432.21;219156;1274;22715;-69
2022/05/27 12:10:39;;;;;;;2.10;1.90;;;;;;;15.85;73.66;98476.09;219373;1274;457782;-68
2022/05/27 12:16:00;;;;;;;2.20;1.20;;;;;;;14.56;72.70;98543.02;219602;1274;26528;-69
2022/05/27 12:21:16;;;;;;;0.70;0.70;;;;;;;13.39;74.20;98559.23;219427;1274;22782;-69
2022/05/27 12:26:30;;;;;;;1.20;0.90;;;;;;;12.65;75.69;98551.75;219651;1274;22727;-68
2022/05/27 12:31:34;;;;;;;0.80;0.80;;;;;;;12.20;76.58;98545.04;219689;1274;24407;-69
2022/05/27 12:36:39;;;;;;;1.00;0.80;;;;;;;11.98;77.14;98554.80;219651;1274;25303;-68
2022/05/27 12:41:43;;;;;;;1.00;0.90;;;;;;;11.84;77.68;98546.88;219631;1274;25408;-69
2022/05/27 12:48:18;;;;;;;1.90;1.70;;;;;;;11.68;78.12;98548.69;219479;1274;24384;-73
2022/05/27 12:53:39;;;;;;;1.90;1.70;;;;;;;11.52;78.73;98551.20;220908;1274;24224;-69
2022/05/27 13:05:19;;;;;;;1.50;1.10;;;;;;;11.33;79.54;98580.86;220419;1274;22707;-70
2022/05/27 13:16:15;;;;;;;2.30;2.00;;;;;;;11.23;80.24;98565.08;219522;1274;22577;-71
2022/05/27 13:22:17;;;;;;;;;;;;;;;;;;;;;
2022/05/27 13:27:40;;;;;;;1.70;1.20;;;;;;;11.43;80.82;98540.43;220917;1275;25312;-71
2022/05/27 13:32:49;;;;;;;2.00;1.30;;;;;;;11.41;80.48;98535.13;221000;1274;22507;-69
2022/05/27 13:38:21;;;;;;;1.50;1.40;;;;;;;11.37;80.67;98531.49;219713;1274;25323;-70
2022/05/27 13:43:39;;;;;;;2.10;1.90;;;;;;;11.33;80.95;98539.84;219889;1274;22832;-71
2022/05/27 13:49:00;;;;;;;2.00;1.10;;;;;;;11.33;81.25;98551.85;221014;1274;25427;-70
2022/05/27 13:54:34;;;;;;;2.40;1.60;;;;;;;11.28;80.84;98550.14;220417;1275;22707;-70
2022/05/27 13:59:54;;;;;;;2.10;1.80;;;;;;;11.22;81.22;98536.25;220991;1274;22580;-71
2022/05/27 14:05:23;;;;;;;3.70;1.70;;;;;;;11.21;81.27;98542.80;220371;1274;22587;-71
2022/05/27 14:10:51;;;;;;;3.40;2.10;;;;;;;11.21;81.70;98552.41;220553;1274;24268;-72
2022/05/27 14:16:01;;;;;;;2.40;1.90;;;;;;;11.18;81.91;98549.67;220277;1274;25438;-71
2022/05/27 14:26:37;;;;;;;4.70;3.30;;;;;;;11.10;82.01;98541.52;220382;1274;24300;-71
2022/05/27 14:32:08;;;;;;;15.30;11.00;;;;;;;11.06;82.02;98544.64;220508;1274;22576;-71
2022/05/27 14:37:43;;;;;;;8.00;6.70;;;;;;;11.12;82.66;98543.77;220616;1274;23064;-71
2022/05/27 14:42:48;;;;;;;6.60;5.30;;;;;;;11.14;82.74;98541.27;220450;1275;22544;-72
2022/05/27 14:47:50;;;;;;;8.80;6.90;;;;;;;11.12;83.00;98522.09;220444;1273;22724;-71
2022/05/27 14:53:04;;;;;;;5.10;4.10;;;;;;;11.15;83.37;98504.75;220509;1273;25300;-71
2022/05/27 14:58:20;;;;;;;3.30;2.90;;;;;;;11.12;83.77;98498.10;220158;1275;25485;-71
2022/05/27 15:04:05;;;;;;;3.30;3.00;;;;;;;11.19;83.85;98487.83;220149;1274;22645;-71
2022/05/27 15:09:24;;;;;;;5.80;2.90;;;;;;;11.26;83.78;98505.65;220682;1274;22604;-70
2022/05/27 15:14:44;;;;;;;3.30;2.90;;;;;;;11.27;83.90;98499.52;220687;1276;22576;-72
2022/05/27 15:19:50;;;;;;;10.80;9.00;;;;;;;11.31;83.86;98493.86;220523;1274;24286;-71
2022/05/27 15:25:12;;;;;;;;;;;;;;;;;;;;;
2022/05/27 15:36:37;;;;;;;4.30;3.20;;;;;;;11.20;84.12;98498.44;219855;1279;22563;-71
2022/05/27 15:41:40;;;;;;;3.60;3.10;;;;;;;11.12;84.17;98496.86;220158;1276;22556;-71
2022/05/27 15:46:43;;;;;;;5.50;3.80;;;;;;;11.10;84.47;98479.21;220435;1274;22624;-71
2022/05/27 15:51:49;;;;;;;51.30;39.50;;;;;;;11.15;85.13;98474.13;220512;1274;25507;-71
2022/05/27 15:57:03;;;;;;;4.10;3.60;;;;;;;11.26;85.21;98480.13;220339;1274;25364;-70
2022/05/27 16:02:29;;;;;;;3.50;2.20;;;;;;;11.30;84.99;98469.80;220472;1274;24220;-70
2022/05/27 16:07:34;;;;;;;2.80;2.40;;;;;;;11.35;84.87;98474.95;220422;1274;22579;-70
2022/05/27 16:12:40;;;;;;;3.20;2.50;;;;;;;11.43;85.10;98458.27;219753;1274;22534;-71
2022/05/27 16:23:28;;;;;;;12.80;10.10;;;;;;;11.86;84.83;98448.07;219991;1273;24300;-69
2022/05/27 16:28:42;;;;;;;4.00;2.80;;;;;;;11.92;84.60;98437.02;220563;1274;22560;-70
2022/05/27 16:34:11;;;;;;;5.10;3.70;;;;;;;11.85;84.30;98443.92;220186;1274;24242;-69
2022/05/27 16:39:56;;;;;;;3.50;2.90;;;;;;;11.76;84.78;98456.38;219765;1274;22669;-70
2022/05/27 16:45:45;;;;;;;;;;;;;;;;;;;;;
2022/05/27 16:51:31;;;;;;;4.80;3.10;;;;;;;11.56;85.53;98449.89;220541;1274;25325;-70
2022/05/27 16:56:47;;;;;;;4.00;3.40;;;;;;;11.51;85.84;98440.39;220101;1276;22736;-70
2022/05/27 17:01:50;;;;;;;5.40;3.40;;;;;;;11.44;86.08;98436.55;219847;1274;24542;-70
2022/05/27 17:07:03;;;;;;;4.10;3.20;;;;;;;11.39;86.28;98431.52;220046;1274;24282;-69
2022/05/27 17:12:06;;;;;;;5.40;4.70;;;;;;;11.33;86.72;98438.89;220235;1274;22546;-69
2022/05/27 17:17:09;;;;;;;38.10;27.40;;;;;;;11.29;86.66;98440.05;219851;1273;24232;-68
2022/05/27 17:22:20;;;;;;;7.20;4.60;;;;;;;11.38;87.14;98443.48;220052;1273;24231;-70
2022/05/27 17:34:18;;;;;;;4.50;4.10;;;;;;;11.29;86.83;98468.11;219488;1274;24093;-69
2022/05/27 17:39:24;;;;;;;5.80;4.70;;;;;;;11.28;86.93;98456.86;220302;1274;25438;-68
2022/05/27 17:44:27;;;;;;;5.00;4.40;;;;;;;11.28;87.08;98455.02;220150;1274;22585;-70
2022/05/27 17:55:15;;;;;;;10.50;8.70;;;;;;;11.29;87.05;98458.41;219738;1276;22725;-69
2022/05/27 18:00:18;;;;;;;6.40;5.70;;;;;;;11.25;86.97;98453.48;220000;1274;24396;-69
2022/05/27 18:05:54;;;;;;;6.60;5.50;;;;;;;11.20;87.12;98460.75;219839;1274;25406;-69
2022/05/27 18:11:21;;;;;;;8.30;6.30;;;;;;;11.13;87.01;98449.61;220263;1274;24273;-69
2022/05/27 18:17:14;;;;;;;9.30;6.70;;;;;;;11.08;87.48;98450.35;220010;1274;24287;-69
2022/05/27 18:23:03;;;;;;;8.50;6.50;;;;;;;11.05;87.86;98444.58;220226;1273;22540;-68
2022/05/27 18:34:16;;;;;;;9.60;7.10;;;;;;;11.05;88.64;98426.45;219893;1274;26403;-68
2022/05/27 18:39:45;;;;;;;11.00;8.20;;;;;;;11.07;88.87;98431.71;219409;1274;22580;-69
2022/05/27 18:45:19;;;;;;;10.50;7.80;;;;;;;11.07;88.90;98434.40;219861;1274;22750;-69
2022/05/27 18:51:10;;;;;;;10.80;9.30;;;;;;;11.06;89.15;98446.43;220187;1273;24253;-69
2022/05/27 18:56:22;;;;;;;10.50;8.30;;;;;;;11.01;89.09;98457.14;219861;1274;25480;-69
2022/05/27 19:02:08;;;;;;;11.40;9.80;;;;;;;10.89;89.26;98459.45;219693;1274;23814;-68
2022/05/27 19:07:58;;;;;;;16.30;12.20;;;;;;;10.76;90.26;98462.55;219919;1273;22559;-69
2022/05/27 19:13:50;;;;;;;14.20;11.90;;;;;;;10.65;90.55;98473.27;219593;1274;22631;-68
2022/05/27 19:24:25;;;;;;;14.00;11.90;;;;;;;10.57;91.07;98480.16;219950;1274;22711;-69
2022/05/27 19:29:50;;;;;;;16.70;14.00;;;;;;;10.56;91.41;98485.95;219882;1274;25376;-67
2022/05/27 19:34:53;;;;;;;16.00;12.40;;;;;;;10.55;91.47;98487.31;220089;1274;22567;-68
2022/05/27 19:45:47;;;;;;;16.10;13.00;;;;;;;10.41;91.45;98481.17;219705;1273;24495;-68
2022/05/27 19:51:00;;;;;;;18.70;15.30;;;;;;;10.33;91.47;98479.79;219947;1274;22561;-69
2022/05/27 19:56:42;;;;;;;15.80;12.70;;;;;;;10.27;91.53;98476.88;219950;1274;24289;-69
2022/05/27 20:08:08;;;;;;;16.30;13.10;;;;;;;10.14;92.31;98464.95;219566;1275;23902;-69
2022/05/27 20:13:47;;;;;;;17.20;14.50;;;;;;;10.06;92.53;98467.52;219956;1274;22554;-69
2022/05/27 20:19:04;;;;;;;15.10;12.20;;;;;;;10.02;92.69;98463.80;219825;1273;25240;-69
2022/05/27 20:24:08;;;;;;;18.60;13.10;;;;;;;9.97;93.18;98460.55;219922;1274;22557;-69
2022/05/27 20:29:25;;;;;;;16.00;12.70;;;;;;;9.93;93.43;98462.60;220013;1274;22551;-69
2022/05/27 20:34:31;;;;;;;15.50;12.60;;;;;;;9.89;93.16;98457.34;220024;1274;22541;-69
2022/05/27 20:39:42;;;;;;;14.30;11.30;;;;;;;9.84;93.14;98461.33;220134;1274;22542;-69
2022/05/27 20:45:01;;;;;;;;;;;;;;;;;;;;;
2022/05/27 20:50:46;;;;;;;;;;;;;;;;;;;;;
2022/05/27 20:56:12;;;;;;;12.80;10.60;;;;;;;9.67;93.07;98438.14;219830;1273;22559;-68
2022/05/27 21:02:07;;;;;;;14.40;10.10;;;;;;;9.61;92.89;98445.29;219869;1274;22725;-68
2022/05/27 21:07:26;;;;;;;12.20;9.90;;;;;;;9.54;92.51;98452.95;219833;1274;22574;-69
2022/05/27 21:12:57;;;;;;;11.90;8.90;;;;;;;9.46;92.34;98450.11;219534;1275;24259;-70
2022/05/27 21:18:12;;;;;;;11.50;8.60;;;;;;;9.39;92.32;98454.70;219592;1274;24434;-69
2022/05/27 21:28:53;;;;;;;11.50;8.60;;;;;;;9.29;92.28;98447.67;219670;1273;22535;-70
2022/05/27 21:34:17;;;;;;;9.30;7.50;;;;;;;9.23;92.17;98452.35;219478;1276;22530;-70
2022/05/27 21:39:21;;;;;;;10.10;7.50;;;;;;;9.17;92.03;98452.94;219861;1274;22540;-69
2022/05/27 21:44:25;;;;;;;8.80;6.80;;;;;;;9.12;91.97;98451.41;219738;1274;22576;-69
2022/05/27 21:49:31;;;;;;;11.10;7.80;;;;;;;9.06;91.90;98451.48;220138;1274;22544;-68
2022/05/27 21:55:39;;;;;;;;;;;;;;;;;;;;;
2022/05/27 22:01:40;;;;;;;10.70;6.40;;;;;;;8.89;91.60;98454.88;219933;1273;22549;-69
2022/05/27 22:07:06;;;;;;;8.50;5.80;;;;;;;8.82;91.55;98459.56;219891;1273;22560;-70
2022/05/27 22:12:44;;;;;;;12.50;9.20;;;;;;;8.74;91.56;98461.41;219441;1273;26384;-68
2022/05/27 22:18:17;;;;;;;10.60;7.80;;;;;;;8.68;91.63;98462.33;219892;1274;22557;-68
2022/05/27 22:23:42;;;;;;;7.40;5.90;;;;;;;8.61;91.38;98466.29;220041;1274;23052;-70
2022/05/27 22:28:45;;;;;;;7.30;6.20;;;;;;;8.56;91.42;98463.88;219885;1274;22676;-69
2022/05/27 22:34:11;;;;;;;8.40;6.40;;;;;;;8.52;91.55;98466.00;219872;1274;24353;-69
2022/05/27 22:39:30;;;;;;;7.10;6.20;;;;;;;8.47;91.26;98461.36;220056;1274;22553;-68
2022/05/27 22:45:12;;;;;;;11.00;6.50;;;;;;;8.40;91.44;98463.73;219983;1273;25270;-68
2022/05/27 22:50:53;;;;;;;8.50;5.30;;;;;;;8.33;91.45;98464.83;220213;1274;22657;-68
2022/05/27 22:56:42;;;;;;;9.90;5.80;;;;;;;8.28;91.50;98467.27;220235;1273;22564;-69
2022/05/27 23:02:40;;;;;;;7.40;5.40;;;;;;;8.19;91.38;98472.79;219588;1274;22556;-68
2022/05/27 23:08:06;;;;;;;7.50;6.40;;;;;;;8.13;91.40;98480.45;219867;1274;22563;-69
2022/05/27 23:18:43;;;;;;;6.40;5.10;;;;;;;8.08;91.54;98472.82;220069;1273;22521;-68
2022/05/27 23:24:21;;;;;;;7.30;5.40;;;;;;;8.04;91.61;98476.48;219515;1274;22553;-69
2022/05/27 23:29:51;;;;;;;6.80;5.50;;;;;;;8.01;91.52;98466.80;219954;1273;25825;-69
2022/05/27 23:35:17;;;;;;;10.00;8.50;;;;;;;7.95;91.26;98460.75;219949;1273;24270;-69
2022/05/27 23:40:38;;;;;;;7.30;5.70;;;;;;;7.89;91.57;98460.85;219446;1273;25368;-68
2022/05/27 23:46:42;;;;;;;8.20;5.80;;;;;;;7.89;91.41;98461.49;219326;1276;22609;-69
2022/05/27 23:52:14;;;;;;;9.20;6.10;;;;;;;7.91;91.66;98455.89;219521;1276;22608;-70
2022/05/27 23:57:32;;;;;;;9.50;5.90;;;;;;;7.90;91.52;98463.63;219880;1274;22535;-69
